Time;durP1;ratioP1;P1;durP2;ratioP2;P2;SDS_P1;SDS_P2;PMS_P1;PMS_P2;Temp;Humidity;BMP_temperature;BMP_pressure;BME280_temperature;BME280_humidity;BME280_pressure;Samples;Min_cycle;Max_cycle;Signal;HPM_P1;HPM_P2
2023/11/27 00:01:12;;;;;;;6.30;2.90;;;;;;;-0.85;57.44;99863.17;107442;1253;97839;-62
2023/11/27 00:03:41;;;;;;;3.40;2.50;;;;;;;-0.85;57.20;99868.27;107667;1251;97713;-61
2023/11/27 00:06:11;;;;;;;6.10;2.60;;;;;;;-0.84;57.70;99870.27;107592;1253;111159;-59
2023/11/27 00:08:39;;;;;;;4.30;2.50;;;;;;;-0.83;57.00;99865.64;107547;1251;108628;-59
2023/11/27 00:11:08;;;;;;;7.40;3.10;;;;;;;-0.84;56.76;99872.58;107551;1254;108144;-60
2023/11/27 00:13:36;;;;;;;5.50;3.00;;;;;;;-0.83;56.59;99873.08;107572;1252;97834;-59
2023/11/27 00:16:05;;;;;;;3.10;2.40;;;;;;;-0.84;56.76;99877.48;107594;1251;98617;-60
2023/11/27 00:18:34;;;;;;;4.30;2.90;;;;;;;-0.84;56.84;99878.55;107635;1251;111257;-60
2023/11/27 00:21:02;;;;;;;6.00;3.00;;;;;;;-0.85;57.05;99881.81;107647;1254;108971;-61
2023/11/27 00:23:31;;;;;;;3.50;2.60;;;;;;;-0.85;56.85;99886.55;107646;1254;108129;-60
2023/11/27 00:26:00;;;;;;;5.80;2.90;;;;;;;-0.83;56.71;99889.79;107495;1256;98003;-61
2023/11/27 00:28:29;;;;;;;8.60;3.20;;;;;;;-0.81;56.82;99890.41;107599;1254;97835;-60
2023/11/27 00:30:57;;;;;;;5.60;2.70;;;;;;;-0.82;56.68;99897.30;107623;1253;111257;-60
2023/11/27 00:33:26;;;;;;;4.70;3.00;;;;;;;-0.81;56.85;99891.45;107601;1253;110147;-60
2023/11/27 00:35:54;;;;;;;6.80;3.70;;;;;;;-0.81;56.98;99891.05;107580;1254;107352;-60
2023/11/27 00:38:22;;;;;;;5.20;2.20;;;;;;;-0.80;57.34;99891.91;107581;1254;97839;-60
2023/11/27 00:40:51;;;;;;;8.20;3.10;;;;;;;-0.78;57.14;99892.83;107633;1251;97831;-59
2023/11/27 00:43:20;;;;;;;4.40;2.80;;;;;;;-0.78;57.15;99892.33;107559;1253;111749;-61
2023/11/27 00:45:48;;;;;;;6.60;2.30;;;;;;;-0.79;57.02;99892.54;107603;1251;110039;-60
2023/11/27 00:48:17;;;;;;;5.10;3.00;;;;;;;-0.80;57.12;99892.77;107603;1251;107861;-61
2023/11/27 00:50:46;;;;;;;13.10;3.90;;;;;;;-0.81;57.32;99892.64;107568;1254;97816;-59
2023/11/27 00:53:14;;;;;;;6.70;2.70;;;;;;;-0.81;57.40;99892.16;107609;1251;97733;-59
2023/11/27 00:55:46;;;;;;;9.10;2.50;;;;;;;-0.81;57.42;99894.40;107598;1251;112018;-60
2023/11/27 00:58:16;;;;;;;9.30;3.20;;;;;;;-0.81;57.17;99894.76;107641;1251;109972;-61
2023/11/27 01:00:44;;;;;;;7.00;3.00;;;;;;;-0.82;57.37;99892.35;107603;1253;107810;-63
2023/11/27 01:03:13;;;;;;;10.30;3.00;;;;;;;-0.82;57.29;99894.98;107605;1254;99390;-62
2023/11/27 01:05:41;;;;;;;8.40;2.50;;;;;;;-0.80;57.27;99893.11;107571;1253;97899;-60
2023/11/27 01:08:12;;;;;;;4.20;2.20;;;;;;;-0.78;57.12;99896.40;107627;1254;110703;-58
2023/11/27 01:10:42;;;;;;;7.20;2.40;;;;;;;-0.75;57.04;99896.20;107612;1253;108338;-61
2023/11/27 01:13:11;;;;;;;4.70;2.60;;;;;;;-0.73;57.29;99902.30;107586;1255;107795;-60
2023/11/27 01:15:40;;;;;;;6.10;3.10;;;;;;;-0.73;57.33;99901.23;107585;1255;97819;-62
2023/11/27 01:18:09;;;;;;;6.60;3.20;;;;;;;-0.72;57.09;99906.09;107601;1253;97842;-59
2023/11/27 01:20:39;;;;;;;4.20;2.40;;;;;;;-0.73;56.84;99909.13;107609;1251;112115;-60
2023/11/27 01:23:08;;;;;;;5.00;2.20;;;;;;;-0.71;56.41;99912.92;107616;1254;109825;-60
2023/11/27 01:25:37;;;;;;;4.70;2.80;;;;;;;-0.70;56.54;99909.84;107587;1253;108101;-60
2023/11/27 01:28:05;;;;;;;2.80;2.40;;;;;;;-0.67;56.71;99917.61;107580;1253;98162;-61
2023/11/27 01:30:34;;;;;;;5.90;2.60;;;;;;;-0.64;55.97;99924.30;107591;1252;98377;-62
2023/11/27 01:33:06;;;;;;;4.60;2.60;;;;;;;-0.61;55.49;99921.85;107573;1253;111460;-59
2023/11/27 01:35:35;;;;;;;4.00;2.40;;;;;;;-0.60;55.42;99918.98;107428;1252;108530;-59
2023/11/27 01:38:03;;;;;;;3.50;2.00;;;;;;;-0.58;55.29;99925.07;107565;1251;107446;-57
2023/11/27 01:40:31;;;;;;;3.30;2.20;;;;;;;-0.56;54.81;99916.63;107557;1251;97822;-60
2023/11/27 01:43:00;;;;;;;3.70;2.20;;;;;;;-0.52;55.04;99923.65;107564;1252;97902;-60
2023/11/27 01:45:30;;;;;;;8.20;2.20;;;;;;;-0.51;54.92;99922.16;107468;1253;111229;-60
2023/11/27 01:47:59;;;;;;;3.40;2.60;;;;;;;-0.51;54.80;99928.67;107603;1255;108440;-60
2023/11/27 01:50:28;;;;;;;3.70;2.20;;;;;;;-0.51;54.22;99926.04;107487;1252;109609;-61
2023/11/27 01:52:56;;;;;;;5.50;2.30;;;;;;;-0.51;54.58;99922.54;107612;1253;98501;-60
2023/11/27 01:55:26;;;;;;;3.70;2.10;;;;;;;-0.51;54.35;99917.77;107550;1253;97816;-61
2023/11/27 01:57:56;;;;;;;2.80;2.10;;;;;;;-0.50;54.03;99923.02;107560;1253;110459;-60
2023/11/27 02:00:25;;;;;;;4.00;2.60;;;;;;;-0.48;53.60;99925.89;107535;1253;108815;-58
2023/11/27 02:02:56;;;;;;;4.90;2.80;;;;;;;-0.47;53.91;99924.21;107618;1253;107685;-62
2023/11/27 02:05:24;;;;;;;5.60;2.40;;;;;;;-0.44;53.32;99933.25;107453;1253;98014;-63
2023/11/27 02:07:53;;;;;;;5.00;2.10;;;;;;;-0.43;52.76;99932.67;107463;1253;98392;-60
2023/11/27 02:10:21;;;;;;;5.10;2.20;;;;;;;-0.42;52.86;99935.76;107615;1251;111178;-58
2023/11/27 02:12:49;;;;;;;3.90;2.60;;;;;;;-0.42;52.92;99942.98;107583;1251;110126;-60
2023/11/27 02:15:18;;;;;;;2.10;1.70;;;;;;;-0.42;52.68;99950.02;107548;1253;108115;-62
2023/11/27 02:17:46;;;;;;;3.00;2.30;;;;;;;-0.42;52.62;99948.96;107581;1253;97836;-61
2023/11/27 02:20:15;;;;;;;4.30;1.90;;;;;;;-0.43;52.60;99951.86;107555;1253;98456;-62
2023/11/27 02:22:43;;;;;;;2.70;1.90;;;;;;;-0.43;52.95;99953.43;107491;1253;110873;-61
2023/11/27 02:25:11;;;;;;;5.70;2.20;;;;;;;-0.42;52.61;99955.70;107450;1253;108567;-61
2023/11/27 02:27:40;;;;;;;5.10;1.80;;;;;;;-0.41;52.21;99957.40;107551;1252;108616;-59
2023/11/27 02:30:09;;;;;;;4.80;2.20;;;;;;;-0.39;52.02;99960.09;107588;1253;97711;-60
2023/11/27 02:32:37;;;;;;;3.40;1.90;;;;;;;-0.38;51.93;99960.88;107642;1252;97818;-60
2023/11/27 02:35:06;;;;;;;3.50;2.10;;;;;;;-0.39;51.48;99963.98;107599;1254;111796;-60
2023/11/27 02:37:34;;;;;;;3.40;2.20;;;;;;;-0.37;51.48;99969.16;107661;1252;109952;-61
2023/11/27 02:40:05;;;;;;;2.80;1.80;;;;;;;-0.37;51.33;99971.22;107666;1251;107616;-59
2023/11/27 02:42:33;;;;;;;3.70;1.90;;;;;;;-0.36;51.64;99971.54;107567;1255;97824;-61
2023/11/27 02:45:02;;;;;;;5.00;1.80;;;;;;;-0.37;51.14;99975.66;107595;1251;99502;-60
2023/11/27 02:47:31;;;;;;;4.20;1.80;;;;;;;-0.38;51.13;99971.49;107643;1251;111269;-59
2023/11/27 02:50:00;;;;;;;4.00;1.90;;;;;;;-0.38;51.27;99982.58;107641;1252;107898;-61
2023/11/27 02:52:28;;;;;;;6.60;1.60;;;;;;;-0.37;51.41;99978.98;107566;1252;108035;-60
2023/11/27 02:54:58;;;;;;;2.80;1.60;;;;;;;-0.37;51.29;99986.40;107589;1255;97888;-59
2023/11/27 02:57:27;;;;;;;3.10;2.10;;;;;;;-0.37;51.14;99980.05;107684;1251;98449;-59
2023/11/27 02:59:55;;;;;;;5.20;2.10;;;;;;;-0.37;51.02;99976.17;107648;1253;112241;-63
2023/11/27 03:02:24;;;;;;;7.60;2.10;;;;;;;-0.37;51.18;99974.42;107647;1255;109678;-62
2023/11/27 03:04:52;;;;;;;12.10;1.90;;;;;;;-0.36;51.31;99976.47;107538;1254;108653;-59
2023/11/27 03:07:20;;;;;;;2.40;1.90;;;;;;;-0.35;51.05;99975.90;107591;1253;97929;-60
2023/11/27 03:09:49;;;;;;;3.80;2.10;;;;;;;-0.36;51.17;99979.83;107521;1254;98362;-59
2023/11/27 03:12:18;;;;;;;4.80;2.10;;;;;;;-0.38;51.06;99975.89;107616;1251;111314;-59
2023/11/27 03:14:46;;;;;;;3.30;1.80;;;;;;;-0.39;51.41;99976.99;107584;1251;109103;-61
2023/11/27 03:17:14;;;;;;;2.90;1.80;;;;;;;-0.39;50.95;99987.05;107579;1254;108314;-60
2023/11/27 03:19:43;;;;;;;3.00;2.20;;;;;;;-0.38;51.02;99994.23;107601;1254;97850;-59
2023/11/27 03:22:16;;;;;;;4.90;1.90;;;;;;;-0.37;50.85;100001.39;107622;1254;97710;-60
2023/11/27 03:24:45;;;;;;;2.90;2.10;;;;;;;-0.38;50.80;100005.64;107607;1251;110500;-62
2023/11/27 03:27:13;;;;;;;3.90;2.40;;;;;;;-0.37;51.12;100005.60;107454;1256;110328;-60
2023/11/27 03:29:42;;;;;;;3.20;1.60;;;;;;;-0.37;50.72;100011.42;107603;1253;108561;-61
2023/11/27 03:32:10;;;;;;;5.10;2.30;;;;;;;-0.36;50.43;100014.88;107570;1254;97820;-60
2023/11/27 03:34:38;;;;;;;8.20;2.30;;;;;;;-0.34;50.28;100019.37;107624;1253;98368;-59
2023/11/27 03:37:07;;;;;;;3.40;2.00;;;;;;;-0.31;50.78;100021.86;107625;1255;111729;-61
2023/11/27 03:39:37;;;;;;;2.50;1.80;;;;;;;-0.29;49.84;100021.58;107583;1251;109660;-59
2023/11/27 03:42:06;;;;;;;2.30;1.50;;;;;;;-0.28;50.04;100026.11;107599;1251;108254;-60
2023/11/27 03:44:34;;;;;;;5.60;1.70;;;;;;;-0.33;50.06;100019.30;107538;1254;97828;-61
2023/11/27 03:47:03;;;;;;;2.30;1.90;;;;;;;-0.30;49.76;100026.55;107605;1255;97833;-60
2023/11/27 03:49:31;;;;;;;3.40;2.40;;;;;;;-0.30;49.98;100027.60;107586;1254;111064;-61
2023/11/27 03:52:04;;;;;;;4.30;2.00;;;;;;;-0.30;50.02;100030.80;107619;1251;109187;-59
2023/11/27 03:54:33;;;;;;;7.80;3.80;;;;;;;-0.28;50.07;100028.39;107576;1253;108644;-61
2023/11/27 03:57:01;;;;;;;2.50;1.30;;;;;;;-0.25;49.83;100036.33;107575;1251;97853;-61
2023/11/27 03:59:29;;;;;;;2.50;1.50;;;;;;;-0.25;49.08;100047.06;107614;1251;97786;-62
2023/11/27 04:01:59;;;;;;;1.70;1.60;;;;;;;-0.25;49.10;100037.70;107639;1251;111169;-60
2023/11/27 04:04:27;;;;;;;1.90;1.30;;;;;;;-0.23;48.82;100037.97;107627;1254;109992;-61
2023/11/27 04:06:56;;;;;;;1.80;1.00;;;;;;;-0.21;48.62;100035.73;107540;1254;107800;-61
2023/11/27 04:09:25;;;;;;;1.60;1.20;;;;;;;-0.19;48.57;100031.89;107545;1255;97720;-61
2023/11/27 04:11:53;;;;;;;1.30;0.90;;;;;;;-0.15;48.85;100035.39;107560;1253;99995;-61
2023/11/27 04:14:22;;;;;;;2.70;1.30;;;;;;;-0.13;48.02;100036.72;107590;1255;111675;-61
2023/11/27 04:16:50;;;;;;;2.00;1.40;;;;;;;-0.13;48.03;100038.31;107581;1253;109946;-60
2023/11/27 04:19:19;;;;;;;3.20;1.20;;;;;;;-0.12;48.06;100041.44;107521;1253;108004;-59
2023/11/27 04:21:47;;;;;;;2.20;1.10;;;;;;;-0.12;47.63;100043.38;107505;1253;97844;-60
2023/11/27 04:24:16;;;;;;;9.90;1.30;;;;;;;-0.12;47.43;100046.35;107567;1253;97729;-60
2023/11/27 04:26:45;;;;;;;2.30;0.90;;;;;;;-0.10;47.73;100046.63;107559;1253;111585;-60
2023/11/27 04:29:13;;;;;;;4.30;1.30;;;;;;;-0.09;48.12;100050.40;107556;1253;110038;-61
2023/11/27 04:31:41;;;;;;;2.30;1.30;;;;;;;-0.09;48.02;100059.05;107517;1253;108071;-61
2023/11/27 04:34:10;;;;;;;3.40;1.40;;;;;;;-0.09;48.16;100061.70;107624;1252;97932;-60
2023/11/27 04:36:38;;;;;;;2.90;1.50;;;;;;;-0.08;48.17;100075.20;107615;1251;98360;-61
2023/11/27 04:39:10;;;;;;;3.30;1.40;;;;;;;-0.06;47.89;100071.95;107574;1251;111722;-61
2023/11/27 04:41:42;;;;;;;3.60;1.60;;;;;;;-0.05;47.82;100074.55;107564;1253;109940;-60
2023/11/27 04:44:11;;;;;;;3.90;1.80;;;;;;;-0.05;48.18;100076.66;107563;1253;108682;-61
2023/11/27 04:46:40;;;;;;;10.30;1.80;;;;;;;-0.06;47.87;100086.17;107590;1253;97844;-59
2023/11/27 04:49:11;;;;;;;6.80;1.90;;;;;;;-0.06;47.94;100091.87;107632;1253;98367;-59
2023/11/27 04:51:40;;;;;;;8.20;2.60;;;;;;;-0.08;48.09;100095.98;107597;1255;111399;-60
2023/11/27 04:54:08;;;;;;;7.00;2.20;;;;;;;-0.08;48.13;100093.74;107510;1253;107985;-60
2023/11/27 04:56:37;;;;;;;3.80;2.10;;;;;;;-0.09;48.07;100099.20;107574;1253;108400;-61
2023/11/27 04:59:05;;;;;;;4.30;2.00;;;;;;;-0.10;47.70;100098.58;107617;1253;97815;-61
2023/11/27 05:01:36;;;;;;;2.00;1.70;;;;;;;-0.08;47.75;100101.15;107548;1253;97830;-63
2023/11/27 05:04:05;;;;;;;7.30;1.90;;;;;;;-0.08;47.68;100100.95;107565;1253;111816;-61
2023/11/27 05:06:33;;;;;;;6.90;2.20;;;;;;;-0.07;47.84;100097.18;107573;1253;110203;-61
2023/11/27 05:09:02;;;;;;;7.70;2.60;;;;;;;-0.06;47.73;100103.32;107554;1253;108501;-61
2023/11/27 05:11:31;;;;;;;7.30;2.20;;;;;;;-0.04;47.72;100105.30;107584;1253;96318;-62
2023/11/27 05:13:59;;;;;;;14.70;2.90;;;;;;;-0.04;47.57;100113.73;107580;1253;98521;-62
2023/11/27 05:16:28;;;;;;;3.70;2.00;;;;;;;-0.03;47.50;100113.70;107575;1255;111918;-63
2023/11/27 05:18:56;;;;;;;9.40;3.30;;;;;;;-0.03;47.50;100119.16;107566;1251;109332;-59
2023/11/27 05:21:26;;;;;;;6.10;1.80;;;;;;;-0.03;47.25;100122.91;107431;1256;108437;-61
2023/11/27 05:23:54;;;;;;;4.10;2.00;;;;;;;-0.03;47.02;100125.73;107509;1253;97834;-61
2023/11/27 05:26:23;;;;;;;2.20;1.70;;;;;;;-0.04;47.19;100126.13;107520;1252;97771;-61
2023/11/27 05:28:51;;;;;;;6.70;1.60;;;;;;;-0.04;46.61;100131.77;107452;1254;111864;-60
2023/11/27 05:31:23;;;;;;;7.20;2.20;;;;;;;-0.04;47.15;100123.66;107432;1253;110141;-62
2023/11/27 05:33:52;;;;;;;4.20;1.50;;;;;;;-0.04;46.93;100133.33;107474;1253;108743;-61
2023/11/27 05:36:21;;;;;;;4.80;1.80;;;;;;;-0.04;46.55;100132.63;107483;1253;97823;-61
2023/11/27 05:38:49;;;;;;;9.40;2.30;;;;;;;-0.03;46.66;100137.33;107472;1253;97927;-60
2023/11/27 05:41:22;;;;;;;2.40;1.80;;;;;;;-0.03;46.47;100146.50;107472;1253;111868;-62
2023/11/27 05:43:51;;;;;;;8.90;2.00;;;;;;;-0.01;46.37;100143.95;107511;1255;108210;-61
2023/11/27 05:46:20;;;;;;;5.80;2.00;;;;;;;0.02;46.71;100151.16;107492;1255;108659;-60
2023/11/27 05:48:48;;;;;;;10.90;2.00;;;;;;;0.04;46.39;100152.30;107480;1252;97845;-61
2023/11/27 05:51:17;;;;;;;12.70;2.20;;;;;;;0.06;46.69;100154.11;107506;1256;98595;-62
2023/11/27 05:53:46;;;;;;;7.80;2.10;;;;;;;0.07;46.28;100163.59;107451;1253;111944;-59
2023/11/27 05:56:14;;;;;;;11.00;2.10;;;;;;;0.07;46.44;100166.07;107369;1254;109808;-59
2023/11/27 05:58:43;;;;;;;5.50;2.00;;;;;;;0.07;46.31;100167.11;107491;1256;108750;-65
2023/11/27 06:01:12;;;;;;;4.60;2.00;;;;;;;0.07;46.43;100174.17;107402;1253;97948;-62
2023/11/27 06:03:42;;;;;;;6.10;2.40;;;;;;;0.07;46.20;100181.41;107478;1253;98156;-62
2023/11/27 06:06:10;;;;;;;5.30;2.10;;;;;;;0.09;46.60;100183.23;107558;1253;110494;-61
2023/11/27 06:08:41;;;;;;;4.20;2.00;;;;;;;0.11;46.42;100189.30;107544;1253;109373;-62
2023/11/27 06:11:11;;;;;;;11.20;3.10;;;;;;;0.13;46.43;100193.58;107443;1256;108510;-60
2023/11/27 06:13:43;;;;;;;3.80;2.20;;;;;;;0.17;46.45;100202.91;107491;1255;97908;-60
2023/11/27 06:16:12;;;;;;;3.80;2.30;;;;;;;0.20;46.25;100205.38;107503;1253;97791;-60
2023/11/27 06:18:40;;;;;;;7.30;1.70;;;;;;;0.23;46.25;100207.85;107572;1255;112114;-61
2023/11/27 06:21:12;;;;;;;9.40;1.60;;;;;;;0.25;45.88;100216.42;107559;1251;108591;-61
2023/11/27 06:23:40;;;;;;;3.70;2.00;;;;;;;0.29;45.61;100209.69;107508;1256;108230;-61
2023/11/27 06:26:13;;;;;;;5.70;2.30;;;;;;;0.31;45.50;100219.96;107468;1254;97871;-61
2023/11/27 06:28:41;;;;;;;2.30;1.60;;;;;;;0.36;45.59;100218.13;107481;1255;97986;-60
2023/11/27 06:31:10;;;;;;;3.40;2.10;;;;;;;0.40;45.66;100223.52;107542;1253;111855;-60
2023/11/27 06:33:38;;;;;;;6.50;2.10;;;;;;;0.42;45.65;100223.95;107472;1254;109271;-61
2023/11/27 06:36:08;;;;;;;3.10;2.00;;;;;;;0.46;45.76;100224.64;107505;1255;108545;-60
2023/11/27 06:38:36;;;;;;;8.30;2.20;;;;;;;0.51;46.13;100227.02;107523;1254;97839;-61
2023/11/27 06:41:06;;;;;;;3.10;2.00;;;;;;;0.54;46.20;100225.27;107688;1253;97868;-61
2023/11/27 06:43:34;;;;;;;4.40;2.10;;;;;;;0.57;46.03;100228.77;107530;1256;110693;-61
2023/11/27 06:46:03;;;;;;;11.00;2.10;;;;;;;0.58;45.84;100232.60;107501;1253;109755;-61
2023/11/27 06:48:32;;;;;;;3.80;2.30;;;;;;;0.64;46.49;100237.57;107510;1255;107122;-62
2023/11/27 06:51:01;;;;;;;3.70;2.10;;;;;;;0.70;46.12;100238.86;107481;1255;97821;-60
2023/11/27 06:53:29;;;;;;;2.90;1.70;;;;;;;0.73;46.25;100245.69;107567;1256;98469;-62
2023/11/27 06:55:58;;;;;;;3.10;1.90;;;;;;;0.75;45.62;100242.45;107521;1253;111161;-62
2023/11/27 06:58:26;;;;;;;4.60;2.00;;;;;;;0.75;45.36;100248.98;107457;1253;110055;-61
2023/11/27 07:00:55;;;;;;;2.60;1.70;;;;;;;0.77;45.68;100241.45;107445;1254;107236;-62
2023/11/27 07:03:23;;;;;;;6.90;3.30;;;;;;;0.78;45.80;100246.34;107482;1254;97977;-60
2023/11/27 07:05:51;;;;;;;4.90;2.30;;;;;;;0.78;46.04;100248.10;107525;1251;97837;-60
2023/11/27 07:08:20;;;;;;;6.30;2.80;;;;;;;0.79;45.86;100251.05;107470;1254;111888;-61
2023/11/27 07:10:48;;;;;;;11.10;2.40;;;;;;;0.82;45.76;100245.21;107506;1254;109379;-61
2023/11/27 07:13:19;;;;;;;4.80;2.10;;;;;;;0.88;46.07;100244.54;107477;1254;109631;-60
2023/11/27 07:15:49;;;;;;;8.00;2.50;;;;;;;0.95;45.79;100246.44;107536;1255;97815;-60
2023/11/27 07:18:18;;;;;;;3.10;1.90;;;;;;;1.04;46.25;100245.06;107494;1253;97752;-59
2023/11/27 07:20:50;;;;;;;4.60;2.10;;;;;;;1.08;45.88;100244.97;107576;1256;110772;-62
2023/11/27 07:23:20;;;;;;;2.50;1.70;;;;;;;1.09;45.66;100241.03;107552;1251;108094;-60
2023/11/27 07:25:48;;;;;;;5.20;2.00;;;;;;;1.07;45.87;100244.50;107507;1251;107703;-60
2023/11/27 07:28:16;;;;;;;4.00;2.20;;;;;;;1.03;45.90;100240.13;107493;1254;97923;-61
2023/11/27 07:30:46;;;;;;;2.40;1.50;;;;;;;1.03;46.15;100241.58;107493;1256;97861;-60
2023/11/27 07:33:15;;;;;;;7.90;2.40;;;;;;;1.01;46.10;100247.30;107606;1257;111582;-60
2023/11/27 07:35:44;;;;;;;7.80;2.60;;;;;;;1.01;45.89;100244.30;107503;1256;110517;-60
2023/11/27 07:38:12;;;;;;;9.10;2.50;;;;;;;1.01;45.82;100245.41;107456;1255;107333;-59
2023/11/27 07:40:42;;;;;;;9.30;2.90;;;;;;;0.98;45.69;100256.32;107451;1251;97854;-61
2023/11/27 07:43:11;;;;;;;7.20;2.90;;;;;;;0.92;45.24;100257.17;107487;1255;98403;-60
2023/11/27 07:45:40;;;;;;;6.30;3.20;;;;;;;0.85;45.38;100257.77;107529;1256;111755;-60
2023/11/27 07:48:08;;;;;;;6.60;3.10;;;;;;;0.84;45.34;100256.40;107489;1254;108661;-60
2023/11/27 07:50:37;;;;;;;7.50;3.10;;;;;;;0.82;45.49;100251.77;107379;1257;106401;-61
2023/11/27 07:53:05;;;;;;;8.10;3.30;;;;;;;0.78;45.36;100254.64;107375;1256;97839;-62
2023/11/27 07:55:34;;;;;;;8.30;2.60;;;;;;;0.73;44.66;100262.16;107539;1251;97909;-60
2023/11/27 07:58:03;;;;;;;8.10;3.30;;;;;;;0.68;44.96;100250.03;107524;1251;111799;-61
2023/11/27 08:00:32;;;;;;;9.40;3.90;;;;;;;0.66;45.10;100251.59;107499;1256;111875;-62
2023/11/27 08:03:00;;;;;;;7.60;3.30;;;;;;;0.66;45.22;100257.05;107491;1256;107541;-61
2023/11/27 08:05:29;;;;;;;5.40;3.00;;;;;;;0.73;44.94;100258.40;107452;1254;97772;-61
2023/11/27 08:07:58;;;;;;;7.90;3.70;;;;;;;0.82;44.76;100248.05;107480;1255;97913;-61
2023/11/27 08:10:29;;;;;;;11.00;3.20;;;;;;;0.96;44.93;100253.96;107465;1256;110708;-61
2023/11/27 08:12:57;;;;;;;7.70;3.10;;;;;;;1.12;44.51;100258.00;107579;1251;109755;-60
2023/11/27 08:15:26;;;;;;;8.30;3.50;;;;;;;1.29;44.78;100254.36;107539;1253;107755;-61
2023/11/27 08:18:00;;;;;;;7.20;3.00;;;;;;;1.54;43.81;100265.65;107566;1254;98008;-60
2023/11/27 08:20:29;;;;;;;4.70;3.00;;;;;;;1.91;42.76;100264.86;107560;1256;98478;-61
2023/11/27 08:22:58;;;;;;;9.70;3.50;;;;;;;2.42;41.49;100261.22;107585;1256;111899;-62
2023/11/27 08:25:27;;;;;;;10.50;4.20;;;;;;;2.94;40.96;100256.54;107607;1251;108506;-61
2023/11/27 08:27:57;;;;;;;6.50;3.40;;;;;;;3.54;39.99;100257.76;107589;1251;107950;-61
2023/11/27 08:30:29;;;;;;;6.40;3.30;;;;;;;3.87;38.62;100262.95;107539;1251;97820;-61
2023/11/27 08:32:58;;;;;;;4.30;2.90;;;;;;;4.14;38.08;100265.16;107610;1251;98361;-59
2023/11/27 08:35:27;;;;;;;10.40;3.50;;;;;;;4.47;37.80;100258.81;107528;1255;112146;-61
2023/11/27 08:37:55;;;;;;;8.30;3.60;;;;;;;4.76;37.07;100269.36;107591;1254;109872;-62
2023/11/27 08:40:24;;;;;;;10.40;3.90;;;;;;;4.96;36.34;100267.41;107559;1251;107836;-60
2023/11/27 08:42:53;;;;;;;6.50;3.40;;;;;;;5.06;35.82;100263.77;107590;1251;97825;-60
2023/11/27 08:45:21;;;;;;;6.60;3.80;;;;;;;5.34;35.60;100259.58;107609;1251;98510;-61
2023/11/27 08:47:50;;;;;;;6.80;3.80;;;;;;;5.59;35.11;100251.80;107596;1255;111671;-60
2023/11/27 08:50:33;;;;;;;7.80;4.30;;;;;;;5.87;34.85;100249.21;107525;1256;109836;-61
2023/11/27 08:53:05;;;;;;;6.60;3.40;;;;;;;6.04;34.30;100244.75;107415;1256;107821;-61
2023/11/27 08:55:34;;;;;;;7.50;3.30;;;;;;;6.37;34.41;100239.49;107494;1254;97949;-62
2023/11/27 08:58:04;;;;;;;11.40;4.80;;;;;;;6.70;33.89;100234.70;107568;1253;98464;-61
2023/11/27 09:00:34;;;;;;;12.20;3.50;;;;;;;6.85;33.27;100225.67;107581;1254;110707;-61
2023/11/27 09:03:04;;;;;;;6.00;3.10;;;;;;;6.96;33.47;100226.00;107602;1256;110049;-61
2023/11/27 09:05:33;;;;;;;5.50;2.50;;;;;;;6.40;33.12;100230.98;107561;1251;108565;-60
2023/11/27 09:08:05;;;;;;;7.80;2.70;;;;;;;5.87;33.20;100241.02;107612;1251;97916;-59
2023/11/27 09:10:36;;;;;;;7.30;1.80;;;;;;;5.74;33.05;100247.73;107611;1254;97895;-60
2023/11/27 09:13:06;;;;;;;11.50;3.10;;;;;;;5.57;33.48;100247.70;107411;1254;111401;-62
2023/11/27 09:15:36;;;;;;;3.90;1.50;;;;;;;5.78;32.80;100252.91;107616;1255;109372;-64
2023/11/27 09:18:04;;;;;;;8.10;3.50;;;;;;;5.56;33.08;100252.46;107565;1254;108160;-60
2023/11/27 09:20:33;;;;;;;4.70;2.30;;;;;;;5.13;33.59;100257.57;107606;1251;97911;-61
2023/11/27 09:23:02;;;;;;;4.20;1.90;;;;;;;4.64;34.21;100258.27;107615;1251;98387;-60
2023/11/27 09:25:30;;;;;;;7.00;2.40;;;;;;;4.17;35.10;100258.23;107547;1251;111392;-61
2023/11/27 09:27:59;;;;;;;7.30;2.00;;;;;;;3.89;35.80;100250.23;107601;1251;109942;-61
2023/11/27 09:30:27;;;;;;;6.40;2.40;;;;;;;3.80;36.45;100249.45;107539;1254;107372;-61
2023/11/27 09:32:56;;;;;;;5.40;2.60;;;;;;;3.80;36.61;100259.90;107615;1255;97922;-60
2023/11/27 09:35:24;;;;;;;4.90;2.30;;;;;;;3.65;36.91;100265.17;107616;1254;98376;-59
2023/11/27 09:37:52;;;;;;;13.70;2.60;;;;;;;3.58;37.74;100262.08;107590;1251;111249;-61
2023/11/27 09:40:22;;;;;;;3.00;2.10;;;;;;;3.58;37.77;100262.41;107613;1254;109507;-59
2023/11/27 09:42:51;;;;;;;6.20;2.80;;;;;;;3.56;37.77;100260.09;107552;1251;107761;-60
2023/11/27 09:45:20;;;;;;;9.00;4.90;;;;;;;3.51;37.70;100261.50;107551;1254;97928;-62
2023/11/27 09:47:50;;;;;;;13.60;3.40;;;;;;;3.39;37.26;100270.27;107632;1254;97718;-60
2023/11/27 09:50:21;;;;;;;9.20;3.60;;;;;;;3.25;37.57;100262.30;107539;1254;111846;-61
2023/11/27 09:53:05;;;;;;;6.70;3.10;;;;;;;3.22;37.82;100264.98;107603;1251;108997;-59
2023/11/27 09:55:35;;;;;;;9.20;2.70;;;;;;;3.18;37.85;100263.48;107589;1255;106604;-61
2023/11/27 09:58:05;;;;;;;6.60;2.20;;;;;;;3.18;37.82;100263.32;107552;1254;97822;-61
2023/11/27 10:00:34;;;;;;;7.60;2.70;;;;;;;3.19;37.24;100264.98;107602;1254;97889;-59
2023/11/27 10:03:03;;;;;;;24.20;3.10;;;;;;;3.20;36.66;100266.52;107598;1251;111136;-61
2023/11/27 10:05:32;;;;;;;5.00;1.90;;;;;;;3.09;36.12;100269.18;107631;1251;110054;-61
2023/11/27 10:08:03;;;;;;;9.00;2.70;;;;;;;3.04;37.07;100263.48;107452;1251;108976;-61
2023/11/27 10:10:32;;;;;;;5.60;2.60;;;;;;;3.01;37.04;100261.74;107565;1252;98399;-61
2023/11/27 10:13:12;;;;;;;8.80;2.90;;;;;;;2.98;36.78;100257.50;107306;1253;404429;-62
2023/11/27 10:15:58;;;;;;;11.70;6.10;;;;;;;2.99;37.72;100248.08;107606;1253;111553;-62
2023/11/27 10:18:28;;;;;;;6.60;3.40;;;;;;;3.05;37.90;100247.15;107626;1251;109609;-60
2023/11/27 10:20:58;;;;;;;4.50;2.80;;;;;;;3.07;37.30;100250.00;107593;1253;107581;-61
2023/11/27 10:23:30;;;;;;;7.70;3.20;;;;;;;3.06;37.08;100251.50;107661;1254;97723;-61
2023/11/27 10:25:59;;;;;;;5.60;2.70;;;;;;;3.05;36.97;100246.92;107461;1253;98431;-61
2023/11/27 10:28:41;;;;;;;8.10;2.80;;;;;;;3.08;37.05;100242.66;107549;1253;111425;-61
2023/11/27 10:31:10;;;;;;;5.10;3.00;;;;;;;3.13;37.47;100231.41;107640;1251;110296;-63
2023/11/27 10:33:40;;;;;;;10.10;2.70;;;;;;;3.23;37.83;100235.83;107569;1251;108213;-61
2023/11/27 10:36:09;;;;;;;8.20;2.70;;;;;;;3.27;37.01;100234.19;107618;1251;97829;-61
2023/11/27 10:38:38;;;;;;;5.00;2.60;;;;;;;3.26;36.94;100234.73;107380;1260;97982;-63
2023/11/27 10:41:09;;;;;;;8.20;2.90;;;;;;;3.42;36.41;100237.29;107633;1251;110459;-61
2023/11/27 10:43:41;;;;;;;6.00;3.20;;;;;;;3.82;35.32;100239.89;107615;1251;109871;-61
2023/11/27 10:46:11;;;;;;;4.30;2.70;;;;;;;3.82;35.60;100231.02;107606;1251;105953;-62
2023/11/27 10:48:42;;;;;;;7.90;2.80;;;;;;;3.77;35.32;100232.05;107588;1251;97714;-62
2023/11/27 10:51:13;;;;;;;17.40;4.60;;;;;;;3.70;34.90;100236.05;107522;1254;99652;-62
2023/11/27 10:53:46;;;;;;;11.80;4.10;;;;;;;3.63;34.63;100237.78;107585;1252;112309;-61
2023/11/27 10:56:15;;;;;;;4.70;2.80;;;;;;;3.60;35.50;100225.73;107603;1251;109032;-63
2023/11/27 10:58:45;;;;;;;7.80;3.30;;;;;;;3.65;35.84;100219.77;107647;1251;107231;-61
2023/11/27 11:01:18;;;;;;;7.10;3.00;;;;;;;3.67;35.41;100216.95;107544;1253;97849;-62
2023/11/27 11:03:50;;;;;;;8.40;4.40;;;;;;;3.96;35.62;100218.14;107529;1253;98457;-61
2023/11/27 11:06:21;;;;;;;7.50;3.20;;;;;;;4.16;36.07;100212.56;107560;1254;110909;-61
2023/11/27 11:08:50;;;;;;;7.60;4.10;;;;;;;4.59;35.70;100210.83;107548;1254;108616;-62
2023/11/27 11:11:23;;;;;;;8.20;3.50;;;;;;;5.10;34.38;100215.73;107497;1256;107941;-61
2023/11/27 11:13:52;;;;;;;11.00;6.40;;;;;;;5.86;33.58;100207.84;107496;1257;98027;-61
2023/11/27 11:16:31;;;;;;;10.40;4.60;;;;;;;6.35;32.51;100204.58;107533;1251;98444;-62
2023/11/27 11:19:08;;;;;;;5.80;3.20;;;;;;;6.57;33.04;100196.75;107552;1253;112235;-61
2023/11/27 11:22:50;;;;;;;4.30;3.00;;;;;;;7.34;31.65;100202.05;107537;1256;108546;-63
2023/11/27 11:25:36;;;;;;;7.90;2.90;;;;;;;7.88;30.95;100194.23;106549;1260;107535;-61
2023/11/27 11:28:13;;;;;;;9.60;2.80;;;;;;;8.36;30.33;100188.60;106931;1259;97933;-62